sensor_id;sensor_type;location;lat;lon;timestamp;P1;durP1;ratioP1;P2;durP2;ratioP2
62463;SDS011;48512;48.552;9.380;2023-07-13T00:02:17;9.13;;;2.60;;
62463;SDS011;48512;48.552;9.380;2023-07-13T00:04:45;6.88;;;2.95;;
62463;SDS011;48512;48.552;9.380;2023-07-13T00:07:14;5.40;;;3.00;;
62463;SDS011;48512;48.552;9.380;2023-07-13T00:09:40;4.32;;;2.60;;
62463;SDS011;48512;48.552;9.380;2023-07-13T00:12:21;6.00;;;2.55;;
62463;SDS011;48512;48.552;9.380;2023-07-13T00:14:53;8.35;;;2.97;;
62463;SDS011;48512;48.552;9.380;2023-07-13T00:17:24;8.00;;;2.75;;
62463;SDS011;48512;48.552;9.380;2023-07-13T00:19:50;8.57;;;2.90;;
62463;SDS011;48512;48.552;9.380;2023-07-13T00:22:19;6.15;;;3.00;;
62463;SDS011;48512;48.552;9.380;2023-07-13T00:24:45;5.80;;;2.75;;
62463;SDS011;48512;48.552;9.380;2023-07-13T00:27:12;5.65;;;2.58;;
62463;SDS011;48512;48.552;9.380;2023-07-13T00:29:38;4.55;;;2.50;;
62463;SDS011;48512;48.552;9.380;2023-07-13T00:32:04;8.02;;;2.78;;
62463;SDS011;48512;48.552;9.380;2023-07-13T00:34:32;3.80;;;2.10;;
62463;SDS011;48512;48.552;9.380;2023-07-13T00:36:59;6.30;;;2.40;;
62463;SDS011;48512;48.552;9.380;2023-07-13T00:39:25;5.80;;;2.60;;
62463;SDS011;48512;48.552;9.380;2023-07-13T00:41:51;5.93;;;2.42;;
62463;SDS011;48512;48.552;9.380;2023-07-13T00:44:20;6.10;;;2.30;;
62463;SDS011;48512;48.552;9.380;2023-07-13T00:46:49;4.85;;;2.28;;
62463;SDS011;48512;48.552;9.380;2023-07-13T00:49:17;8.25;;;2.55;;
62463;SDS011;48512;48.552;9.380;2023-07-13T00:52:02;5.78;;;2.33;;
62463;SDS011;48512;48.552;9.380;2023-07-13T00:54:38;4.63;;;2.22;;
62463;SDS011;48512;48.552;9.380;2023-07-13T00:57:09;4.15;;;2.20;;
62463;SDS011;48512;48.552;9.380;2023-07-13T00:59:40;4.40;;;2.28;;
62463;SDS011;48512;48.552;9.380;2023-07-13T01:02:08;3.80;;;2.58;;
62463;SDS011;48512;48.552;9.380;2023-07-13T01:04:36;4.00;;;2.13;;
62463;SDS011;48512;48.552;9.380;2023-07-13T01:07:02;6.68;;;2.35;;
62463;SDS011;48512;48.552;9.380;2023-07-13T01:09:28;4.57;;;2.20;;
62463;SDS011;48512;48.552;9.380;2023-07-13T01:11:54;4.53;;;2.30;;
62463;SDS011;48512;48.552;9.380;2023-07-13T01:14:21;4.72;;;2.40;;
62463;SDS011;48512;48.552;9.380;2023-07-13T01:16:47;4.78;;;2.10;;
62463;SDS011;48512;48.552;9.380;2023-07-13T01:19:29;4.78;;;2.33;;
62463;SDS011;48512;48.552;9.380;2023-07-13T01:22:02;4.72;;;2.55;;
62463;SDS011;48512;48.552;9.380;2023-07-13T01:24:37;6.40;;;2.42;;
62463;SDS011;48512;48.552;9.380;2023-07-13T01:27:04;4.75;;;2.42;;
62463;SDS011;48512;48.552;9.380;2023-07-13T01:29:32;4.05;;;2.35;;
62463;SDS011;48512;48.552;9.380;2023-07-13T01:32:00;5.53;;;2.70;;
62463;SDS011;48512;48.552;9.380;2023-07-13T01:34:27;4.10;;;2.20;;
62463;SDS011;48512;48.552;9.380;2023-07-13T01:36:53;4.68;;;2.20;;
62463;SDS011;48512;48.552;9.380;2023-07-13T01:39:20;4.35;;;2.45;;
62463;SDS011;48512;48.552;9.380;2023-07-13T01:41:48;6.23;;;2.40;;
62463;SDS011;48512;48.552;9.380;2023-07-13T01:44:14;5.90;;;2.30;;
62463;SDS011;48512;48.552;9.380;2023-07-13T01:46:40;3.10;;;2.20;;
62463;SDS011;48512;48.552;9.380;2023-07-13T01:49:09;4.20;;;2.60;;
62463;SDS011;48512;48.552;9.380;2023-07-13T01:51:35;5.40;;;2.55;;
62463;SDS011;48512;48.552;9.380;2023-07-13T01:54:01;7.88;;;2.33;;
62463;SDS011;48512;48.552;9.380;2023-07-13T01:56:27;4.78;;;2.28;;
62463;SDS011;48512;48.552;9.380;2023-07-13T01:58:56;5.07;;;2.00;;
62463;SDS011;48512;48.552;9.380;2023-07-13T02:01:22;5.88;;;1.88;;
62463;SDS011;48512;48.552;9.380;2023-07-13T02:03:48;8.63;;;2.08;;
62463;SDS011;48512;48.552;9.380;2023-07-13T02:06:17;6.22;;;2.08;;
62463;SDS011;48512;48.552;9.380;2023-07-13T02:08:43;4.28;;;2.20;;
62463;SDS011;48512;48.552;9.380;2023-07-13T02:11:10;5.13;;;2.60;;
62463;SDS011;48512;48.552;9.380;2023-07-13T02:13:39;5.78;;;2.10;;
62463;SDS011;48512;48.552;9.380;2023-07-13T02:16:05;5.07;;;2.38;;
62463;SDS011;48512;48.552;9.380;2023-07-13T02:18:32;5.03;;;2.10;;
62463;SDS011;48512;48.552;9.380;2023-07-13T02:20:58;4.80;;;2.40;;
62463;SDS011;48512;48.552;9.380;2023-07-13T02:23:26;4.80;;;2.03;;
62463;SDS011;48512;48.552;9.380;2023-07-13T02:25:56;16.27;;;2.63;;
62463;SDS011;48512;48.552;9.380;2023-07-13T02:28:23;4.80;;;2.28;;
62463;SDS011;48512;48.552;9.380;2023-07-13T02:30:54;4.00;;;1.98;;
62463;SDS011;48512;48.552;9.380;2023-07-13T02:33:20;7.93;;;2.17;;
62463;SDS011;48512;48.552;9.380;2023-07-13T02:35:48;5.20;;;2.22;;
62463;SDS011;48512;48.552;9.380;2023-07-13T02:38:14;7.05;;;2.53;;
62463;SDS011;48512;48.552;9.380;2023-07-13T02:40:45;6.07;;;2.30;;
62463;SDS011;48512;48.552;9.380;2023-07-13T02:43:12;5.95;;;2.15;;
62463;SDS011;48512;48.552;9.380;2023-07-13T02:45:38;7.00;;;2.45;;
62463;SDS011;48512;48.552;9.380;2023-07-13T02:48:05;6.93;;;2.13;;
62463;SDS011;48512;48.552;9.380;2023-07-13T02:50:33;5.60;;;2.20;;
62463;SDS011;48512;48.552;9.380;2023-07-13T02:52:59;4.50;;;2.30;;
62463;SDS011;48512;48.552;9.380;2023-07-13T02:55:25;4.38;;;2.00;;
62463;SDS011;48512;48.552;9.380;2023-07-13T02:57:51;4.95;;;2.10;;
62463;SDS011;48512;48.552;9.380;2023-07-13T03:00:18;6.90;;;2.45;;
62463;SDS011;48512;48.552;9.380;2023-07-13T03:02:49;8.27;;;2.90;;
62463;SDS011;48512;48.552;9.380;2023-07-13T03:05:17;4.97;;;2.60;;
62463;SDS011;48512;48.552;9.380;2023-07-13T03:07:46;8.30;;;2.80;;
62463;SDS011;48512;48.552;9.380;2023-07-13T03:10:12;6.57;;;2.45;;
62463;SDS011;48512;48.552;9.380;2023-07-13T03:12:45;4.78;;;2.63;;
62463;SDS011;48512;48.552;9.380;2023-07-13T03:15:20;8.15;;;2.55;;
62463;SDS011;48512;48.552;9.380;2023-07-13T03:17:50;8.20;;;2.58;;
62463;SDS011;48512;48.552;9.380;2023-07-13T03:20:18;5.07;;;2.50;;
62463;SDS011;48512;48.552;9.380;2023-07-13T03:22:44;4.82;;;2.40;;
62463;SDS011;48512;48.552;9.380;2023-07-13T03:25:11;4.13;;;2.50;;
62463;SDS011;48512;48.552;9.380;2023-07-13T03:27:40;6.45;;;2.85;;
62463;SDS011;48512;48.552;9.380;2023-07-13T03:30:08;9.27;;;3.20;;
62463;SDS011;48512;48.552;9.380;2023-07-13T03:32:35;6.95;;;2.72;;
62463;SDS011;48512;48.552;9.380;2023-07-13T03:35:03;6.13;;;2.80;;
62463;SDS011;48512;48.552;9.380;2023-07-13T03:37:31;6.35;;;2.55;;
62463;SDS011;48512;48.552;9.380;2023-07-13T03:39:58;6.78;;;2.65;;
62463;SDS011;48512;48.552;9.380;2023-07-13T03:42:25;5.70;;;2.40;;
62463;SDS011;48512;48.552;9.380;2023-07-13T03:44:51;4.55;;;3.22;;
62463;SDS011;48512;48.552;9.380;2023-07-13T03:47:19;7.68;;;2.78;;
62463;SDS011;48512;48.552;9.380;2023-07-13T03:49:45;10.93;;;2.95;;
62463;SDS011;48512;48.552;9.380;2023-07-13T03:52:13;9.10;;;2.58;;
62463;SDS011;48512;48.552;9.380;2023-07-13T03:54:39;7.22;;;2.75;;
62463;SDS011;48512;48.552;9.380;2023-07-13T03:57:06;9.27;;;2.58;;
62463;SDS011;48512;48.552;9.380;2023-07-13T03:59:35;7.35;;;2.72;;
62463;SDS011;48512;48.552;9.380;2023-07-13T04:02:01;6.65;;;2.80;;
62463;SDS011;48512;48.552;9.380;2023-07-13T04:04:32;5.63;;;2.50;;
62463;SDS011;48512;48.552;9.380;2023-07-13T04:06:59;8.07;;;3.47;;
62463;SDS011;48512;48.552;9.380;2023-07-13T04:09:27;5.38;;;3.65;;
62463;SDS011;48512;48.552;9.380;2023-07-13T04:11:53;5.40;;;2.75;;
62463;SDS011;48512;48.552;9.380;2023-07-13T04:14:22;6.38;;;2.42;;
62463;SDS011;48512;48.552;9.380;2023-07-13T04:16:48;11.47;;;3.10;;
62463;SDS011;48512;48.552;9.380;2023-07-13T04:19:14;8.63;;;3.42;;
62463;SDS011;48512;48.552;9.380;2023-07-13T04:21:41;7.18;;;2.90;;
62463;SDS011;48512;48.552;9.380;2023-07-13T04:24:07;7.90;;;2.70;;
62463;SDS011;48512;48.552;9.380;2023-07-13T04:26:33;6.00;;;2.58;;
62463;SDS011;48512;48.552;9.380;2023-07-13T04:29:01;7.90;;;2.80;;
62463;SDS011;48512;48.552;9.380;2023-07-13T04:31:30;9.25;;;3.28;;
62463;SDS011;48512;48.552;9.380;2023-07-13T04:33:57;7.07;;;2.90;;
62463;SDS011;48512;48.552;9.380;2023-07-13T04:36:26;8.03;;;2.80;;
62463;SDS011;48512;48.552;9.380;2023-07-13T04:38:55;9.80;;;2.90;;
62463;SDS011;48512;48.552;9.380;2023-07-13T04:41:23;8.18;;;3.20;;
62463;SDS011;48512;48.552;9.380;2023-07-13T04:43:49;6.28;;;3.65;;
62463;SDS011;48512;48.552;9.380;2023-07-13T04:46:16;6.75;;;3.03;;
62463;SDS011;48512;48.552;9.380;2023-07-13T04:48:45;11.57;;;3.45;;
62463;SDS011;48512;48.552;9.380;2023-07-13T04:51:14;8.93;;;3.03;;
62463;SDS011;48512;48.552;9.380;2023-07-13T04:53:41;8.73;;;3.80;;
62463;SDS011;48512;48.552;9.380;2023-07-13T04:56:07;4.68;;;3.40;;
62463;SDS011;48512;48.552;9.380;2023-07-13T04:58:35;4.65;;;3.13;;
62463;SDS011;48512;48.552;9.380;2023-07-13T05:01:02;8.10;;;3.33;;
62463;SDS011;48512;48.552;9.380;2023-07-13T05:03:29;9.18;;;3.17;;
62463;SDS011;48512;48.552;9.380;2023-07-13T05:06:00;8.27;;;3.90;;
62463;SDS011;48512;48.552;9.380;2023-07-13T05:08:28;8.68;;;3.13;;
62463;SDS011;48512;48.552;9.380;2023-07-13T05:10:59;9.13;;;3.08;;
62463;SDS011;48512;48.552;9.380;2023-07-13T05:13:28;8.07;;;3.78;;
62463;SDS011;48512;48.552;9.380;2023-07-13T05:16:02;6.97;;;3.50;;
62463;SDS011;48512;48.552;9.380;2023-07-13T05:18:33;9.23;;;3.53;;
62463;SDS011;48512;48.552;9.380;2023-07-13T05:21:04;7.53;;;3.60;;
62463;SDS011;48512;48.552;9.380;2023-07-13T05:23:33;6.63;;;3.60;;
62463;SDS011;48512;48.552;9.380;2023-07-13T05:26:03;7.55;;;3.65;;
62463;SDS011;48512;48.552;9.380;2023-07-13T05:28:30;7.18;;;3.75;;
62463;SDS011;48512;48.552;9.380;2023-07-13T05:30:57;6.13;;;3.63;;
62463;SDS011;48512;48.552;9.380;2023-07-13T05:33:23;9.43;;;3.70;;
62463;SDS011;48512;48.552;9.380;2023-07-13T05:35:50;8.38;;;4.05;;
62463;SDS011;48512;48.552;9.380;2023-07-13T05:38:16;11.50;;;4.25;;
62463;SDS011;48512;48.552;9.380;2023-07-13T05:40:46;8.60;;;3.60;;
62463;SDS011;48512;48.552;9.380;2023-07-13T05:43:13;9.13;;;4.10;;
62463;SDS011;48512;48.552;9.380;2023-07-13T05:45:40;14.52;;;3.80;;
62463;SDS011;48512;48.552;9.380;2023-07-13T05:48:09;14.57;;;3.80;;
62463;SDS011;48512;48.552;9.380;2023-07-13T05:50:35;7.32;;;3.65;;
62463;SDS011;48512;48.552;9.380;2023-07-13T05:53:04;13.10;;;4.07;;
62463;SDS011;48512;48.552;9.380;2023-07-13T05:55:31;16.05;;;3.97;;
62463;SDS011;48512;48.552;9.380;2023-07-13T05:57:57;11.57;;;4.00;;
62463;SDS011;48512;48.552;9.380;2023-07-13T06:00:27;9.35;;;3.97;;
62463;SDS011;48512;48.552;9.380;2023-07-13T06:02:56;11.02;;;4.07;;
62463;SDS011;48512;48.552;9.380;2023-07-13T06:05:24;10.17;;;3.93;;
62463;SDS011;48512;48.552;9.380;2023-07-13T06:07:51;9.18;;;4.22;;
62463;SDS011;48512;48.552;9.380;2023-07-13T06:10:19;12.77;;;4.60;;
62463;SDS011;48512;48.552;9.380;2023-07-13T06:12:45;9.65;;;4.05;;
62463;SDS011;48512;48.552;9.380;2023-07-13T06:15:11;12.55;;;4.60;;
62463;SDS011;48512;48.552;9.380;2023-07-13T06:17:40;13.68;;;4.43;;
62463;SDS011;48512;48.552;9.380;2023-07-13T06:20:06;7.40;;;3.70;;
62463;SDS011;48512;48.552;9.380;2023-07-13T06:22:33;8.23;;;4.00;;
62463;SDS011;48512;48.552;9.380;2023-07-13T06:25:01;15.03;;;7.10;;
62463;SDS011;48512;48.552;9.380;2023-07-13T06:27:28;16.70;;;7.40;;
62463;SDS011;48512;48.552;9.380;2023-07-13T06:29:54;15.35;;;6.47;;
62463;SDS011;48512;48.552;9.380;2023-07-13T06:32:21;8.00;;;4.03;;
62463;SDS011;48512;48.552;9.380;2023-07-13T06:34:49;9.57;;;3.70;;
62463;SDS011;48512;48.552;9.380;2023-07-13T06:37:18;19.13;;;9.02;;
62463;SDS011;48512;48.552;9.380;2023-07-13T06:39:44;13.18;;;5.72;;
62463;SDS011;48512;48.552;9.380;2023-07-13T06:42:10;13.57;;;6.00;;
62463;SDS011;48512;48.552;9.380;2023-07-13T06:44:37;9.90;;;4.05;;
62463;SDS011;48512;48.552;9.380;2023-07-13T06:47:03;10.57;;;4.15;;
62463;SDS011;48512;48.552;9.380;2023-07-13T06:49:29;11.57;;;5.07;;
62463;SDS011;48512;48.552;9.380;2023-07-13T06:51:55;10.02;;;3.88;;
62463;SDS011;48512;48.552;9.380;2023-07-13T06:54:27;8.50;;;3.85;;
62463;SDS011;48512;48.552;9.380;2023-07-13T06:56:55;10.70;;;3.90;;
62463;SDS011;48512;48.552;9.380;2023-07-13T06:59:22;9.30;;;4.07;;
62463;SDS011;48512;48.552;9.380;2023-07-13T07:01:50;15.18;;;5.72;;
62463;SDS011;48512;48.552;9.380;2023-07-13T07:04:18;14.20;;;5.38;;
62463;SDS011;48512;48.552;9.380;2023-07-13T07:06:47;12.88;;;5.00;;
62463;SDS011;48512;48.552;9.380;2023-07-13T07:09:13;19.02;;;6.63;;
62463;SDS011;48512;48.552;9.380;2023-07-13T07:11:40;7.93;;;3.75;;
62463;SDS011;48512;48.552;9.380;2023-07-13T07:14:08;11.40;;;3.40;;
62463;SDS011;48512;48.552;9.380;2023-07-13T07:16:34;9.32;;;3.60;;
62463;SDS011;48512;48.552;9.380;2023-07-13T07:19:00;9.77;;;3.67;;
62463;SDS011;48512;48.552;9.380;2023-07-13T07:21:27;10.35;;;3.60;;
62463;SDS011;48512;48.552;9.380;2023-07-13T07:23:53;10.30;;;4.00;;
62463;SDS011;48512;48.552;9.380;2023-07-13T07:26:21;5.47;;;3.45;;
62463;SDS011;48512;48.552;9.380;2023-07-13T07:28:47;9.80;;;3.47;;
62463;SDS011;48512;48.552;9.380;2023-07-13T07:31:14;9.50;;;4.15;;
62463;SDS011;48512;48.552;9.380;2023-07-13T07:33:43;5.35;;;3.60;;
62463;SDS011;48512;48.552;9.380;2023-07-13T07:36:09;14.60;;;4.00;;
62463;SDS011;48512;48.552;9.380;2023-07-13T07:38:37;10.20;;;3.63;;
62463;SDS011;48512;48.552;9.380;2023-07-13T07:41:04;10.25;;;3.60;;
62463;SDS011;48512;48.552;9.380;2023-07-13T07:43:30;10.55;;;4.32;;
62463;SDS011;48512;48.552;9.380;2023-07-13T07:45:57;10.13;;;3.83;;
62463;SDS011;48512;48.552;9.380;2023-07-13T07:48:23;8.70;;;3.83;;
62463;SDS011;48512;48.552;9.380;2023-07-13T07:50:50;6.18;;;3.22;;
62463;SDS011;48512;48.552;9.380;2023-07-13T07:53:16;9.45;;;2.95;;
62463;SDS011;48512;48.552;9.380;2023-07-13T07:55:42;6.88;;;3.28;;
62463;SDS011;48512;48.552;9.380;2023-07-13T07:58:08;7.50;;;3.40;;
62463;SDS011;48512;48.552;9.380;2023-07-13T08:00:35;7.18;;;2.95;;
62463;SDS011;48512;48.552;9.380;2023-07-13T08:03:01;5.35;;;2.42;;
62463;SDS011;48512;48.552;9.380;2023-07-13T08:05:28;5.03;;;2.97;;
62463;SDS011;48512;48.552;9.380;2023-07-13T08:07:54;8.20;;;2.38;;
62463;SDS011;48512;48.552;9.380;2023-07-13T08:10:20;11.68;;;4.03;;
62463;SDS011;48512;48.552;9.380;2023-07-13T08:12:47;5.30;;;2.53;;
62463;SDS011;48512;48.552;9.380;2023-07-13T08:15:14;7.50;;;2.30;;
62463;SDS011;48512;48.552;9.380;2023-07-13T08:17:41;8.63;;;4.63;;
62463;SDS011;48512;48.552;9.380;2023-07-13T08:20:08;8.15;;;4.95;;
62463;SDS011;48512;48.552;9.380;2023-07-13T08:22:37;6.20;;;3.33;;
62463;SDS011;48512;48.552;9.380;2023-07-13T08:25:03;4.85;;;2.53;;
62463;SDS011;48512;48.552;9.380;2023-07-13T08:27:30;9.43;;;2.40;;
62463;SDS011;48512;48.552;9.380;2023-07-13T08:29:56;8.15;;;2.50;;
62463;SDS011;48512;48.552;9.380;2023-07-13T08:32:22;7.15;;;2.58;;
62463;SDS011;48512;48.552;9.380;2023-07-13T08:34:50;5.10;;;2.28;;
62463;SDS011;48512;48.552;9.380;2023-07-13T08:37:16;5.57;;;2.47;;
62463;SDS011;48512;48.552;9.380;2023-07-13T08:39:43;9.43;;;2.40;;
62463;SDS011;48512;48.552;9.380;2023-07-13T08:44:49;4.32;;;2.45;;
62463;SDS011;48512;48.552;9.380;2023-07-13T08:47:18;6.60;;;2.35;;
62463;SDS011;48512;48.552;9.380;2023-07-13T08:49:48;5.45;;;2.38;;
62463;SDS011;48512;48.552;9.380;2023-07-13T08:52:35;4.35;;;2.67;;
62463;SDS011;48512;48.552;9.380;2023-07-13T08:55:08;7.15;;;2.25;;
62463;SDS011;48512;48.552;9.380;2023-07-13T08:57:38;4.10;;;2.22;;
62463;SDS011;48512;48.552;9.380;2023-07-13T09:00:09;6.25;;;2.60;;
62463;SDS011;48512;48.552;9.380;2023-07-13T09:08:04;6.50;;;2.40;;
62463;SDS011;48512;48.552;9.380;2023-07-13T09:10:44;8.07;;;2.35;;
62463;SDS011;48512;48.552;9.380;2023-07-13T09:15:59;4.95;;;2.40;;
62463;SDS011;48512;48.552;9.380;2023-07-13T09:18:28;5.82;;;2.10;;
62463;SDS011;48512;48.552;9.380;2023-07-13T09:23:38;4.60;;;2.33;;
62463;SDS011;48512;48.552;9.380;2023-07-13T09:26:06;5.97;;;2.40;;
62463;SDS011;48512;48.552;9.380;2023-07-13T09:28:43;7.43;;;2.35;;
62463;SDS011;48512;48.552;9.380;2023-07-13T09:31:24;4.78;;;2.22;;
62463;SDS011;48512;48.552;9.380;2023-07-13T09:33:56;5.05;;;2.58;;
62463;SDS011;48512;48.552;9.380;2023-07-13T09:36:24;5.13;;;2.30;;
62463;SDS011;48512;48.552;9.380;2023-07-13T09:39:03;7.63;;;2.50;;
62463;SDS011;48512;48.552;9.380;2023-07-13T09:47:21;6.43;;;2.10;;
62463;SDS011;48512;48.552;9.380;2023-07-13T09:50:02;7.60;;;2.28;;
62463;SDS011;48512;48.552;9.380;2023-07-13T09:52:47;7.05;;;2.20;;
62463;SDS011;48512;48.552;9.380;2023-07-13T09:57:51;5.80;;;2.10;;
62463;SDS011;48512;48.552;9.380;2023-07-13T10:00:22;4.45;;;2.38;;
62463;SDS011;48512;48.552;9.380;2023-07-13T10:03:02;4.65;;;2.22;;
62463;SDS011;48512;48.552;9.380;2023-07-13T10:05:37;16.02;;;2.30;;
62463;SDS011;48512;48.552;9.380;2023-07-13T10:08:05;3.67;;;2.00;;
62463;SDS011;48512;48.552;9.380;2023-07-13T10:10:33;5.50;;;2.22;;
62463;SDS011;48512;48.552;9.380;2023-07-13T10:13:01;4.55;;;1.95;;
62463;SDS011;48512;48.552;9.380;2023-07-13T10:15:30;4.53;;;2.05;;
62463;SDS011;48512;48.552;9.380;2023-07-13T10:17:56;7.05;;;1.98;;
62463;SDS011;48512;48.552;9.380;2023-07-13T10:20:24;4.63;;;2.00;;
62463;SDS011;48512;48.552;9.380;2023-07-13T10:23:05;6.95;;;2.15;;
62463;SDS011;48512;48.552;9.380;2023-07-13T10:25:41;4.80;;;2.05;;
62463;SDS011;48512;48.552;9.380;2023-07-13T10:33:16;5.03;;;2.00;;
62463;SDS011;48512;48.552;9.380;2023-07-13T10:35:43;2.92;;;2.00;;
62463;SDS011;48512;48.552;9.380;2023-07-13T10:38:13;4.32;;;2.15;;
62463;SDS011;48512;48.552;9.380;2023-07-13T10:41:02;4.90;;;2.00;;
62463;SDS011;48512;48.552;9.380;2023-07-13T10:43:39;5.60;;;2.20;;
62463;SDS011;48512;48.552;9.380;2023-07-13T10:46:15;5.05;;;2.30;;
62463;SDS011;48512;48.552;9.380;2023-07-13T10:48:44;7.35;;;2.03;;
62463;SDS011;48512;48.552;9.380;2023-07-13T10:51:17;4.80;;;1.77;;
62463;SDS011;48512;48.552;9.380;2023-07-13T10:53:47;4.53;;;1.90;;
62463;SDS011;48512;48.552;9.380;2023-07-13T10:56:33;4.97;;;1.50;;
62463;SDS011;48512;48.552;9.380;2023-07-13T11:04:49;7.78;;;2.88;;
62463;SDS011;48512;48.552;9.380;2023-07-13T11:09:56;4.32;;;2.28;;
62463;SDS011;48512;48.552;9.380;2023-07-13T11:12:52;6.95;;;2.25;;
62463;SDS011;48512;48.552;9.380;2023-07-13T11:15:27;4.07;;;1.55;;
62463;SDS011;48512;48.552;9.380;2023-07-13T11:18:02;2.35;;;1.70;;
62463;SDS011;48512;48.552;9.380;2023-07-13T11:20:31;5.50;;;1.75;;
62463;SDS011;48512;48.552;9.380;2023-07-13T11:25:37;4.20;;;2.10;;
62463;SDS011;48512;48.552;9.380;2023-07-13T11:28:25;2.58;;;1.88;;
62463;SDS011;48512;48.552;9.380;2023-07-13T11:36:06;5.15;;;1.90;;
62463;SDS011;48512;48.552;9.380;2023-07-13T11:41:27;4.18;;;1.60;;
62463;SDS011;48512;48.552;9.380;2023-07-13T11:46:28;3.83;;;1.80;;
62463;SDS011;48512;48.552;9.380;2023-07-13T11:48:54;4.82;;;1.73;;
62463;SDS011;48512;48.552;9.380;2023-07-13T11:51:25;5.10;;;1.88;;
62463;SDS011;48512;48.552;9.380;2023-07-13T11:53:54;5.65;;;2.65;;
62463;SDS011;48512;48.552;9.380;2023-07-13T11:56:22;4.75;;;2.13;;
62463;SDS011;48512;48.552;9.380;2023-07-13T11:58:50;6.00;;;2.15;;
62463;SDS011;48512;48.552;9.380;2023-07-13T12:01:23;4.18;;;1.90;;
62463;SDS011;48512;48.552;9.380;2023-07-13T12:03:52;4.57;;;1.98;;
62463;SDS011;48512;48.552;9.380;2023-07-13T12:06:21;3.63;;;1.55;;
62463;SDS011;48512;48.552;9.380;2023-07-13T12:08:57;3.03;;;1.80;;
62463;SDS011;48512;48.552;9.380;2023-07-13T12:11:25;3.50;;;1.63;;
62463;SDS011;48512;48.552;9.380;2023-07-13T12:13:51;4.40;;;1.60;;
62463;SDS011;48512;48.552;9.380;2023-07-13T12:16:31;5.22;;;2.08;;
62463;SDS011;48512;48.552;9.380;2023-07-13T12:18:59;2.95;;;1.60;;
62463;SDS011;48512;48.552;9.380;2023-07-13T12:21:30;3.15;;;1.70;;
62463;SDS011;48512;48.552;9.380;2023-07-13T12:23:59;3.90;;;1.50;;
62463;SDS011;48512;48.552;9.380;2023-07-13T12:26:28;6.55;;;1.77;;
62463;SDS011;48512;48.552;9.380;2023-07-13T12:28:58;3.78;;;1.55;;
62463;SDS011;48512;48.552;9.380;2023-07-13T12:31:31;4.82;;;1.40;;
62463;SDS011;48512;48.552;9.380;2023-07-13T12:36:38;5.72;;;1.80;;
62463;SDS011;48512;48.552;9.380;2023-07-13T12:39:12;5.25;;;1.60;;
62463;SDS011;48512;48.552;9.380;2023-07-13T12:41:41;6.53;;;1.80;;
62463;SDS011;48512;48.552;9.380;2023-07-13T12:44:18;5.03;;;1.75;;
62463;SDS011;48512;48.552;9.380;2023-07-13T12:46:52;5.22;;;1.70;;
62463;SDS011;48512;48.552;9.380;2023-07-13T12:49:23;3.25;;;1.50;;
62463;SDS011;48512;48.552;9.380;2023-07-13T12:51:56;5.55;;;1.60;;
62463;SDS011;48512;48.552;9.380;2023-07-13T12:54:26;7.65;;;2.00;;
62463;SDS011;48512;48.552;9.380;2023-07-13T12:56:53;3.67;;;1.65;;
62463;SDS011;48512;48.552;9.380;2023-07-13T12:59:24;2.42;;;1.67;;
62463;SDS011;48512;48.552;9.380;2023-07-13T13:01:54;6.00;;;1.60;;
62463;SDS011;48512;48.552;9.380;2023-07-13T13:04:20;4.35;;;1.80;;
62463;SDS011;48512;48.552;9.380;2023-07-13T13:06:47;6.53;;;1.80;;
62463;SDS011;48512;48.552;9.380;2023-07-13T13:09:16;3.67;;;1.73;;
62463;SDS011;48512;48.552;9.380;2023-07-13T13:11:44;4.75;;;1.60;;
62463;SDS011;48512;48.552;9.380;2023-07-13T13:14:10;3.85;;;1.77;;
62463;SDS011;48512;48.552;9.380;2023-07-13T13:16:49;4.78;;;1.67;;
62463;SDS011;48512;48.552;9.380;2023-07-13T13:19:19;2.75;;;1.73;;
62463;SDS011;48512;48.552;9.380;2023-07-13T13:21:47;3.83;;;1.70;;
62463;SDS011;48512;48.552;9.380;2023-07-13T13:26:44;4.50;;;2.03;;
62463;SDS011;48512;48.552;9.380;2023-07-13T13:29:14;4.28;;;1.40;;
62463;SDS011;48512;48.552;9.380;2023-07-13T13:31:44;3.70;;;1.80;;
62463;SDS011;48512;48.552;9.380;2023-07-13T13:34:12;4.30;;;1.73;;
62463;SDS011;48512;48.552;9.380;2023-07-13T13:36:42;4.57;;;1.95;;
62463;SDS011;48512;48.552;9.380;2023-07-13T13:39:18;2.97;;;1.80;;
62463;SDS011;48512;48.552;9.380;2023-07-13T13:41:49;3.83;;;1.80;;
62463;SDS011;48512;48.552;9.380;2023-07-13T13:44:17;4.43;;;1.67;;
62463;SDS011;48512;48.552;9.380;2023-07-13T13:46:53;4.43;;;1.80;;
62463;SDS011;48512;48.552;9.380;2023-07-13T13:49:23;4.97;;;1.65;;
62463;SDS011;48512;48.552;9.380;2023-07-13T13:51:51;3.08;;;1.75;;
62463;SDS011;48512;48.552;9.380;2023-07-13T13:54:19;6.28;;;1.50;;
62463;SDS011;48512;48.552;9.380;2023-07-13T13:56:47;4.65;;;1.60;;
62463;SDS011;48512;48.552;9.380;2023-07-13T14:01:45;3.58;;;1.88;;
62463;SDS011;48512;48.552;9.380;2023-07-13T14:04:17;2.38;;;1.75;;
62463;SDS011;48512;48.552;9.380;2023-07-13T14:06:45;3.60;;;1.70;;
62463;SDS011;48512;48.552;9.380;2023-07-13T14:09:13;4.15;;;1.65;;
62463;SDS011;48512;48.552;9.380;2023-07-13T14:11:42;5.50;;;1.83;;
62463;SDS011;48512;48.552;9.380;2023-07-13T14:14:15;4.35;;;2.13;;
62463;SDS011;48512;48.552;9.380;2023-07-13T14:16:44;3.85;;;1.70;;
62463;SDS011;48512;48.552;9.380;2023-07-13T14:19:12;7.20;;;1.75;;
62463;SDS011;48512;48.552;9.380;2023-07-13T14:21:40;2.78;;;1.80;;
62463;SDS011;48512;48.552;9.380;2023-07-13T14:24:06;5.25;;;1.80;;
62463;SDS011;48512;48.552;9.380;2023-07-13T14:26:35;5.88;;;2.05;;
62463;SDS011;48512;48.552;9.380;2023-07-13T14:29:04;5.13;;;1.98;;
62463;SDS011;48512;48.552;9.380;2023-07-13T14:31:36;6.47;;;1.70;;
62463;SDS011;48512;48.552;9.380;2023-07-13T14:34:02;4.63;;;1.55;;
62463;SDS011;48512;48.552;9.380;2023-07-13T14:36:29;3.13;;;1.75;;
62463;SDS011;48512;48.552;9.380;2023-07-13T14:38:58;5.82;;;1.80;;
62463;SDS011;48512;48.552;9.380;2023-07-13T14:41:26;6.22;;;1.90;;
62463;SDS011;48512;48.552;9.380;2023-07-13T14:43:53;19.90;;;3.90;;
62463;SDS011;48512;48.552;9.380;2023-07-13T14:46:33;8.82;;;2.53;;
62463;SDS011;48512;48.552;9.380;2023-07-13T14:49:02;7.53;;;2.20;;
62463;SDS011;48512;48.552;9.380;2023-07-13T14:51:35;5.28;;;2.35;;
62463;SDS011;48512;48.552;9.380;2023-07-13T14:54:03;6.80;;;1.80;;
62463;SDS011;48512;48.552;9.380;2023-07-13T14:56:31;4.32;;;2.13;;
62463;SDS011;48512;48.552;9.380;2023-07-13T14:58:57;5.28;;;2.17;;
62463;SDS011;48512;48.552;9.380;2023-07-13T15:01:23;4.00;;;2.10;;
62463;SDS011;48512;48.552;9.380;2023-07-13T15:03:51;3.60;;;2.00;;
62463;SDS011;48512;48.552;9.380;2023-07-13T15:06:18;3.97;;;2.05;;
62463;SDS011;48512;48.552;9.380;2023-07-13T15:08:46;3.38;;;2.20;;
62463;SDS011;48512;48.552;9.380;2023-07-13T15:11:12;8.45;;;2.22;;
62463;SDS011;48512;48.552;9.380;2023-07-13T15:13:39;3.35;;;1.95;;
62463;SDS011;48512;48.552;9.380;2023-07-13T15:16:17;4.17;;;1.90;;
62463;SDS011;48512;48.552;9.380;2023-07-13T15:18:47;6.00;;;2.45;;
62463;SDS011;48512;48.552;9.380;2023-07-13T15:21:16;6.40;;;2.03;;
62463;SDS011;48512;48.552;9.380;2023-07-13T15:23:46;5.40;;;2.03;;
62463;SDS011;48512;48.552;9.380;2023-07-13T15:26:13;6.03;;;2.10;;
62463;SDS011;48512;48.552;9.380;2023-07-13T15:28:41;5.95;;;2.05;;
62463;SDS011;48512;48.552;9.380;2023-07-13T15:31:27;3.78;;;1.80;;
62463;SDS011;48512;48.552;9.380;2023-07-13T15:33:57;4.10;;;1.92;;
62463;SDS011;48512;48.552;9.380;2023-07-13T15:36:25;4.10;;;2.10;;
62463;SDS011;48512;48.552;9.380;2023-07-13T15:38:52;5.10;;;2.03;;
62463;SDS011;48512;48.552;9.380;2023-07-13T15:41:25;3.40;;;1.80;;
62463;SDS011;48512;48.552;9.380;2023-07-13T15:43:54;4.88;;;2.15;;
62463;SDS011;48512;48.552;9.380;2023-07-13T15:46:25;4.57;;;2.10;;
62463;SDS011;48512;48.552;9.380;2023-07-13T15:48:53;3.70;;;1.85;;
62463;SDS011;48512;48.552;9.380;2023-07-13T15:51:21;5.80;;;2.10;;
62463;SDS011;48512;48.552;9.380;2023-07-13T15:53:50;10.10;;;2.15;;